createdAt,value
2023-04-10T00:01:17.612Z,52.83
2023-04-10T00:03:48.038Z,54.03
2023-04-10T00:06:17.248Z,54.28
2023-04-10T00:08:46.272Z,56.80
2023-04-10T00:11:15.367Z,55.08
2023-04-10T00:13:45.916Z,53.13
2023-04-10T00:16:15.022Z,53.15
2023-04-10T00:18:44.033Z,54.00
2023-04-10T00:21:13.108Z,51.95
2023-04-10T00:23:42.135Z,55.58
2023-04-10T00:26:11.139Z,55.10
2023-04-10T00:28:40.645Z,52.60
2023-04-10T00:31:11.198Z,53.92
2023-04-10T00:33:40.175Z,56.30
2023-04-10T00:36:09.597Z,51.65
2023-04-10T00:38:38.721Z,51.63
2023-04-10T00:41:08.412Z,51.88
2023-04-10T00:43:37.538Z,48.60
2023-04-10T00:46:07.236Z,50.30
2023-04-10T00:48:38.151Z,45.38
2023-04-10T00:51:08.776Z,42.08
2023-04-10T00:53:38.055Z,42.20
2023-04-10T00:56:08.814Z,40.45
2023-04-10T00:58:38.400Z,40.08
2023-04-10T01:01:10.650Z,38.75
2023-04-10T01:03:44.009Z,37.15
2023-04-10T01:06:20.627Z,36.80
2023-04-10T01:09:02.010Z,37.55
2023-04-10T01:11:46.468Z,35.75
2023-04-10T01:14:24.726Z,33.35
2023-04-10T01:16:59.070Z,33.70
2023-04-10T01:19:48.809Z,33.38
2023-04-10T01:22:18.900Z,36.53
2023-04-10T01:25:03.410Z,37.90
2023-04-10T01:27:46.767Z,35.70
2023-04-10T01:30:22.149Z,39.83
2023-04-10T01:32:55.335Z,39.33
2023-04-10T01:35:25.800Z,38.67
2023-04-10T01:37:56.665Z,37.15
2023-04-10T01:40:30.734Z,39.83
2023-04-10T01:43:05.307Z,38.55
2023-04-10T01:45:48.772Z,37.70
2023-04-10T01:48:21.393Z,39.65
2023-04-10T01:50:52.085Z,40.45
2023-04-10T01:53:21.691Z,37.75
2023-04-10T01:55:52.421Z,36.60
2023-04-10T01:58:22.261Z,39.67
2023-04-10T02:00:53.003Z,39.13
2023-04-10T02:03:23.358Z,39.55
2023-04-10T02:06:03.882Z,41.40
2023-04-10T02:08:39.827Z,42.95
2023-04-10T02:11:17.544Z,35.95
2023-04-10T02:13:48.990Z,38.28
2023-04-10T02:16:24.455Z,36.88
2023-04-10T02:18:56.785Z,37.38
2023-04-10T02:21:27.381Z,37.53
2023-04-10T02:23:59.608Z,40.88
2023-04-10T02:26:29.261Z,42.15
2023-04-10T02:28:59.362Z,39.65
2023-04-10T02:31:31.926Z,42.30
2023-04-10T02:34:01.915Z,40.65
2023-04-10T02:36:31.482Z,42.83
2023-04-10T02:39:01.567Z,38.88
2023-04-10T02:41:31.723Z,40.42
2023-04-10T02:44:04.163Z,41.15
2023-04-10T02:46:34.916Z,38.33
2023-04-10T02:49:04.834Z,38.92
2023-04-10T02:51:37.422Z,42.10
2023-04-10T02:54:07.613Z,42.30
2023-04-10T02:56:38.042Z,40.60
2023-04-10T02:59:07.133Z,41.78
2023-04-10T03:01:39.682Z,38.85
2023-04-10T03:04:09.416Z,42.55
2023-04-10T03:06:41.827Z,39.33
2023-04-10T03:09:11.170Z,40.70
2023-04-10T03:11:40.534Z,39.03
2023-04-10T03:14:12.584Z,40.05
2023-04-10T03:16:43.602Z,42.95
2023-04-10T03:19:12.863Z,38.38
2023-04-10T03:21:42.235Z,40.65
2023-04-10T03:24:11.528Z,37.95
2023-04-10T03:26:40.904Z,40.63
2023-04-10T03:29:09.916Z,35.67
2023-04-10T03:31:38.910Z,37.70
2023-04-10T03:34:09.490Z,33.97
2023-04-10T03:36:39.367Z,38.38
2023-04-10T03:39:08.604Z,36.60
2023-04-10T03:41:37.954Z,40.83
2023-04-10T03:44:09.245Z,40.15
2023-04-10T03:46:41.526Z,38.40
2023-04-10T03:49:18.109Z,36.75
2023-04-10T03:51:50.771Z,36.67
2023-04-10T03:54:20.498Z,36.35
2023-04-10T03:56:50.605Z,35.50
2023-04-10T03:59:21.618Z,36.88
2023-04-10T04:01:55.737Z,39.40
2023-04-10T04:04:28.342Z,38.13
2023-04-10T04:07:04.392Z,36.60
2023-04-10T04:10:12.868Z,37.97
2023-04-10T04:12:54.718Z,34.55
2023-04-10T04:15:38.160Z,36.03
2023-04-10T04:18:19.682Z,34.38
2023-04-10T04:20:59.285Z,33.10
2023-04-10T04:23:55.871Z,33.25
2023-04-10T04:26:49.722Z,31.25
2023-04-10T04:29:55.060Z,29.02
2023-04-10T04:32:46.496Z,27.75
2023-04-10T04:35:26.446Z,29.10
2023-04-10T04:38:16.864Z,32.58
2023-04-10T04:41:04.577Z,29.13
2023-04-10T04:44:01.426Z,31.77
2023-04-10T04:46:48.355Z,28.70
2023-04-10T04:49:26.896Z,27.90
2023-04-10T04:52:18.814Z,28.83
2023-04-10T04:55:01.870Z,28.10
2023-04-10T04:57:49.983Z,28.20
2023-04-10T05:00:47.316Z,29.20
2023-04-10T05:03:42.566Z,27.38
2023-04-10T05:06:35.203Z,27.33
2023-04-10T05:09:16.121Z,26.98
2023-04-10T05:12:06.393Z,24.70
2023-04-10T05:14:59.383Z,22.20
2023-04-10T05:17:51.327Z,20.45
2023-04-10T05:20:37.129Z,22.70
2023-04-10T05:23:29.427Z,22.15
2023-04-10T05:26:25.471Z,24.08
2023-04-10T05:29:13.590Z,21.42
2023-04-10T05:31:56.181Z,24.20
2023-04-10T05:34:45.595Z,24.00
2023-04-10T05:37:35.814Z,21.60
2023-04-10T05:40:24.142Z,22.85
2023-04-10T05:42:59.274Z,25.02
2023-04-10T05:45:38.034Z,21.42
2023-04-10T05:48:22.152Z,20.75
2023-04-10T05:51:20.507Z,21.67
2023-04-10T05:54:19.330Z,20.48
2023-04-10T05:57:06.112Z,21.88
2023-04-10T05:59:49.582Z,24.67
2023-04-10T06:02:32.373Z,20.92
2023-04-10T06:05:02.301Z,19.25
2023-04-10T06:07:34.972Z,20.25
2023-04-10T06:10:04.151Z,20.33
2023-04-10T06:12:37.138Z,19.50
2023-04-10T06:15:09.251Z,19.75
2023-04-10T06:17:45.694Z,19.98
2023-04-10T06:20:15.195Z,20.05
2023-04-10T06:22:44.539Z,21.38
2023-04-10T06:25:14.117Z,18.60
2023-04-10T06:27:43.541Z,18.90
2023-04-10T06:30:13.420Z,18.95
2023-04-10T06:32:44.886Z,18.90
2023-04-10T06:35:14.786Z,17.58
2023-04-10T06:37:44.916Z,19.00
2023-04-10T06:40:16.052Z,18.08
2023-04-10T06:42:45.176Z,18.77
2023-04-10T06:45:30.114Z,20.20
2023-04-10T06:48:00.906Z,19.58
2023-04-10T06:50:32.890Z,21.90
2023-04-10T06:53:02.586Z,19.00
2023-04-10T06:55:31.934Z,18.40
2023-04-10T06:58:01.198Z,21.30
2023-04-10T07:00:31.347Z,20.63
2023-04-10T07:03:02.163Z,21.00
2023-04-10T07:05:31.574Z,23.80
2023-04-10T07:08:00.712Z,21.47
2023-04-10T07:10:29.565Z,23.43
2023-04-10T07:12:59.092Z,24.90
2023-04-10T07:15:28.003Z,22.40
2023-04-10T07:17:57.123Z,24.87
2023-04-10T07:20:28.158Z,23.63
2023-04-10T07:22:57.165Z,24.53
2023-04-10T07:25:26.601Z,27.47
2023-04-10T07:27:55.650Z,26.43
2023-04-10T07:30:24.605Z,27.60
2023-04-10T07:32:53.757Z,24.80
2023-04-10T07:35:23.033Z,27.83
2023-04-10T07:37:54.714Z,28.80
2023-04-10T07:40:23.742Z,28.63
2023-04-10T07:42:53.887Z,25.53
2023-04-10T07:45:23.082Z,28.87
2023-04-10T07:47:52.169Z,28.10
2023-04-10T07:50:21.298Z,29.83
2023-04-10T07:52:52.802Z,30.03
2023-04-10T07:55:22.026Z,30.40
2023-04-10T07:57:52.456Z,30.23
2023-04-10T08:00:21.824Z,30.53
2023-04-10T08:02:51.238Z,28.27
2023-04-10T08:05:20.774Z,29.73
2023-04-10T08:07:49.849Z,31.20
2023-04-10T08:10:20.394Z,30.57
2023-04-10T08:12:49.506Z,31.27
2023-04-10T08:15:19.794Z,32.90
2023-04-10T08:17:48.960Z,27.57
2023-04-10T08:20:17.927Z,29.97
2023-04-10T08:22:47.049Z,27.57
2023-04-10T08:25:16.303Z,28.80
2023-04-10T08:27:46.602Z,26.93
2023-04-10T08:30:15.896Z,26.77
2023-04-10T08:32:44.977Z,24.47
2023-04-10T08:35:14.121Z,26.70
2023-04-10T08:37:49.697Z,25.17
2023-04-10T08:40:23.073Z,26.10
2023-04-10T08:42:53.557Z,25.97
2023-04-10T08:45:23.429Z,25.87
2023-04-10T08:47:53.789Z,24.37
2023-04-10T08:50:23.153Z,24.87
2023-04-10T08:52:56.541Z,25.43
2023-04-10T08:55:26.563Z,25.40
2023-04-10T08:58:00.963Z,22.30
2023-04-10T09:00:34.707Z,22.13
2023-04-10T09:03:05.025Z,20.57
2023-04-10T09:05:40.477Z,24.27
2023-04-10T09:08:15.092Z,23.33
2023-04-10T09:10:54.471Z,19.43
2023-04-10T09:14:25.958Z,19.90
2023-04-10T09:17:16.004Z,18.10
2023-04-10T09:19:50.239Z,18.00
2023-04-10T09:22:35.494Z,19.63
2023-04-10T09:25:06.012Z,22.23
2023-04-10T09:27:40.407Z,23.13
2023-04-10T09:30:36.362Z,22.43
2023-04-10T09:33:31.011Z,23.77
2023-04-10T09:37:45.216Z,22.57
2023-04-10T09:39:13.654Z,22.77
2023-04-10T09:41:54.986Z,22.40
2023-04-10T09:44:32.539Z,23.40
2023-04-10T09:47:19.030Z,19.90
2023-04-10T09:49:49.394Z,16.03
2023-04-10T09:52:22.946Z,17.07
2023-04-10T09:54:52.257Z,16.57
2023-04-10T09:57:23.137Z,16.10
2023-04-10T09:59:54.155Z,17.10
2023-04-10T10:02:26.480Z,16.97
2023-04-10T10:04:56.164Z,15.50
2023-04-10T10:07:26.261Z,16.27
2023-04-10T10:09:55.675Z,16.83
2023-04-10T10:12:31.449Z,15.30
2023-04-10T10:15:07.141Z,17.03
2023-04-10T10:17:47.042Z,16.50
2023-04-10T10:20:19.617Z,15.60
2023-04-10T10:22:51.520Z,13.87
2023-04-10T10:25:21.411Z,16.87
2023-04-10T10:27:53.659Z,16.70
2023-04-10T10:30:30.004Z,15.90
2023-04-10T10:33:02.290Z,16.47
2023-04-10T10:35:33.552Z,15.80
2023-04-10T10:38:06.097Z,16.93
2023-04-10T10:40:42.680Z,12.80
2023-04-10T10:43:21.782Z,14.37
2023-04-10T10:45:56.113Z,17.17
2023-04-10T10:48:26.944Z,15.53
2023-04-10T10:51:02.019Z,16.17
2023-04-10T10:53:40.710Z,15.67
2023-04-10T10:56:35.102Z,17.10
2023-04-10T10:59:04.362Z,13.73
2023-04-10T11:01:34.016Z,16.20
2023-04-10T11:04:39.675Z,14.27
2023-04-10T11:07:11.623Z,14.43
2023-04-10T11:09:51.950Z,16.93
2023-04-10T11:12:24.922Z,13.27
2023-04-10T11:15:00.495Z,11.50
2023-04-10T11:17:48.050Z,11.90
2023-04-10T11:20:19.646Z,12.07
2023-04-10T11:23:11.989Z,11.87
2023-04-10T11:25:51.652Z,12.87
2023-04-10T11:28:40.484Z,10.80
2023-04-10T11:31:22.215Z,8.53
2023-04-10T11:34:07.879Z,9.40
2023-04-10T11:36:48.708Z,9.73
2023-04-10T11:39:19.436Z,9.70
2023-04-10T11:41:49.873Z,10.23
2023-04-10T11:44:22.049Z,7.63
2023-04-10T11:46:52.358Z,9.10
2023-04-10T11:49:22.803Z,10.00
2023-04-10T11:51:54.778Z,8.80
2023-04-10T11:54:27.683Z,9.13
2023-04-10T11:57:05.942Z,9.80
2023-04-10T11:59:36.854Z,9.63
2023-04-10T12:02:11.878Z,10.17
2023-04-10T12:04:41.963Z,9.17
2023-04-10T12:07:13.686Z,9.77
2023-04-10T12:09:42.846Z,9.17
2023-04-10T12:12:12.377Z,8.77
2023-04-10T12:14:43.750Z,9.10
2023-04-10T12:17:15.992Z,8.20
2023-04-10T12:19:45.427Z,8.80
2023-04-10T12:22:17.101Z,8.67
2023-04-10T12:24:48.294Z,9.73
2023-04-10T12:27:20.681Z,10.43
2023-04-10T12:29:53.351Z,9.13
2023-04-10T12:32:24.241Z,9.50
2023-04-10T12:34:54.029Z,7.97
2023-04-10T12:37:24.539Z,8.57
2023-04-10T12:39:54.026Z,9.40
2023-04-10T12:42:27.286Z,8.53
2023-04-10T12:44:57.365Z,9.00
2023-04-10T12:47:28.184Z,8.07
2023-04-10T12:50:11.525Z,5.93
2023-04-10T12:52:43.923Z,9.13
2023-04-10T12:55:21.478Z,8.73
2023-04-10T12:57:55.349Z,8.77
2023-04-10T13:00:28.648Z,8.00
2023-04-10T13:03:08.726Z,7.40
2023-04-10T13:05:45.267Z,8.63
2023-04-10T13:08:18.377Z,8.70
2023-04-10T13:10:47.279Z,9.10
2023-04-10T13:13:16.955Z,8.47
2023-04-10T13:15:45.947Z,9.17
2023-04-10T13:18:14.975Z,10.37
2023-04-10T13:20:43.869Z,9.80
2023-04-10T13:23:14.283Z,10.50
2023-04-10T13:25:43.421Z,10.80
2023-04-10T13:28:12.499Z,9.27
2023-04-10T13:30:43.362Z,8.47
2023-04-10T13:33:12.459Z,10.47
2023-04-10T13:35:41.610Z,11.03
2023-04-10T13:38:11.801Z,9.37
2023-04-10T13:40:42.246Z,8.40
2023-04-10T13:43:11.154Z,8.70
2023-04-10T13:45:40.097Z,8.20
2023-04-10T13:48:09.096Z,8.40
2023-04-10T13:50:38.722Z,8.87
2023-04-10T13:53:10.344Z,9.47
2023-04-10T13:55:43.675Z,8.63
2023-04-10T13:58:14.428Z,8.73
2023-04-10T14:00:45.417Z,9.73
2023-04-10T14:03:14.977Z,9.87
2023-04-10T14:05:44.907Z,9.20
2023-04-10T14:08:15.880Z,8.40
2023-04-10T14:10:44.821Z,8.97
2023-04-10T14:13:15.381Z,8.33
2023-04-10T14:15:44.414Z,7.10
2023-04-10T14:18:14.901Z,8.57
2023-04-10T14:20:43.791Z,8.33
2023-04-10T14:23:18.457Z,7.77
2023-04-10T14:25:49.777Z,7.90
2023-04-10T14:28:20.986Z,7.03
2023-04-10T14:30:51.660Z,7.17
2023-04-10T14:33:21.358Z,7.67
2023-04-10T14:35:50.549Z,7.97
2023-04-10T14:38:19.511Z,7.47
2023-04-10T14:40:50.289Z,6.47
2023-04-10T14:43:21.028Z,8.27
2023-04-10T14:45:49.921Z,7.17
2023-04-10T14:48:19.857Z,8.00
2023-04-10T14:50:49.548Z,7.50
2023-04-10T14:53:18.460Z,7.83
2023-04-10T14:55:47.284Z,8.73
2023-04-10T14:58:16.363Z,8.63
2023-04-10T15:00:46.605Z,9.57
2023-04-10T15:03:15.563Z,8.90
2023-04-10T15:05:44.699Z,9.37
2023-04-10T15:08:13.704Z,9.03
2023-04-10T15:10:42.774Z,8.63
2023-04-10T15:13:11.704Z,8.60
2023-04-10T15:15:40.980Z,9.50
2023-04-10T15:18:11.284Z,9.90
2023-04-10T15:20:44.517Z,9.40
2023-04-10T15:23:13.341Z,10.40
2023-04-10T15:25:42.558Z,10.13
2023-04-10T15:28:11.417Z,9.93
2023-04-10T15:30:44.050Z,10.80
2023-04-10T15:33:14.441Z,10.57
2023-04-10T15:35:43.310Z,9.77
2023-04-10T15:38:14.243Z,10.20
2023-04-10T15:40:43.333Z,10.47
2023-04-10T15:43:12.813Z,10.13
2023-04-10T15:45:41.725Z,10.27
2023-04-10T15:48:10.737Z,10.53
2023-04-10T15:50:41.561Z,10.30
2023-04-10T15:53:10.698Z,8.83
2023-04-10T15:55:41.524Z,9.63
2023-04-10T15:58:10.369Z,8.77
2023-04-10T16:00:39.233Z,8.30
2023-04-10T16:03:08.363Z,9.87
2023-04-10T16:05:37.362Z,8.60
2023-04-10T16:08:07.695Z,8.93
2023-04-10T16:10:36.695Z,8.07
2023-04-10T16:13:07.038Z,9.10
2023-04-10T16:15:39.528Z,8.37
2023-04-10T16:18:09.052Z,9.70
2023-04-10T16:20:37.952Z,8.97
2023-04-10T16:23:08.179Z,9.40
2023-04-10T16:25:37.066Z,9.60
2023-04-10T16:28:08.149Z,8.23
2023-04-10T16:30:39.597Z,7.90
2023-04-10T16:33:08.491Z,8.73
2023-04-10T16:35:37.380Z,9.40
2023-04-10T16:38:07.739Z,8.73
2023-04-10T16:40:36.511Z,9.30
2023-04-10T16:43:05.503Z,8.13
2023-04-10T16:45:34.357Z,8.53
2023-04-10T16:48:03.395Z,9.43
2023-04-10T16:50:36.957Z,9.00
2023-04-10T16:54:03.939Z,9.70
2023-04-10T16:56:37.444Z,8.80
2023-04-10T16:59:06.417Z,9.67
2023-04-10T17:01:39.761Z,9.03
2023-04-10T17:04:09.367Z,8.50
2023-04-10T17:06:38.408Z,9.57
2023-04-10T17:09:07.277Z,9.00
2023-04-10T17:11:37.764Z,9.43
2023-04-10T17:14:07.483Z,9.83
2023-04-10T17:16:36.337Z,9.30
2023-04-10T17:19:05.384Z,9.20
2023-04-10T17:21:34.789Z,10.23
2023-04-10T17:24:03.970Z,7.77
2023-04-10T17:26:33.027Z,9.37
2023-04-10T17:29:03.241Z,9.90
2023-04-10T17:31:32.207Z,9.93
2023-04-10T17:34:01.069Z,8.87
2023-04-10T17:36:30.139Z,9.17
2023-04-10T17:38:59.634Z,8.27
2023-04-10T17:41:28.941Z,15.00
2023-04-10T17:43:57.783Z,10.53
2023-04-10T17:46:28.061Z,9.63
2023-04-10T17:49:01.463Z,10.50
2023-04-10T17:51:31.656Z,11.00
2023-04-10T17:54:01.008Z,10.20
2023-04-10T17:56:30.328Z,10.80
2023-04-10T17:59:00.628Z,13.13
2023-04-10T18:01:31.248Z,13.67
2023-04-10T18:04:02.888Z,13.53
2023-04-10T18:06:32.288Z,12.67
2023-04-10T18:09:01.141Z,13.90
2023-04-10T18:11:30.108Z,14.40
2023-04-10T18:13:59.004Z,14.07
2023-04-10T18:16:29.925Z,13.53
2023-04-10T18:19:07.362Z,12.93
2023-04-10T18:21:36.214Z,11.87
2023-04-10T18:24:05.611Z,11.27
2023-04-10T18:26:35.008Z,11.67
2023-04-10T18:29:09.640Z,12.47
2023-04-10T18:31:39.831Z,12.27
2023-04-10T18:34:09.006Z,12.80
2023-04-10T18:36:37.913Z,11.90
2023-04-10T18:39:06.918Z,10.10
2023-04-10T18:41:35.945Z,10.10
2023-04-10T18:44:05.733Z,10.87
2023-04-10T18:46:34.999Z,9.77
2023-04-10T18:49:30.278Z,10.57
2023-04-10T18:51:59.366Z,9.87
2023-04-10T18:54:28.279Z,9.10
2023-04-10T18:56:57.643Z,10.30
2023-04-10T18:59:27.741Z,10.00
2023-04-10T19:01:57.005Z,10.40
2023-04-10T19:04:26.218Z,8.83
2023-04-10T19:06:56.741Z,10.33
2023-04-10T19:09:25.714Z,11.37
2023-04-10T19:11:55.053Z,10.43
2023-04-10T19:14:24.040Z,9.00
2023-04-10T19:16:52.773Z,9.57
2023-04-10T19:19:21.678Z,10.10
2023-04-10T19:21:50.583Z,9.43
2023-04-10T19:24:20.841Z,9.77
2023-04-10T19:26:49.774Z,9.93
2023-04-10T19:29:18.667Z,8.10
2023-04-10T19:31:47.712Z,8.70
2023-04-10T19:34:16.685Z,9.30
2023-04-10T19:36:45.544Z,8.60
2023-04-10T19:39:14.395Z,9.53
2023-04-10T19:41:44.679Z,9.07
2023-04-10T19:44:13.563Z,9.20
2023-04-10T19:46:42.630Z,9.53
2023-04-10T19:49:11.507Z,8.60
2023-04-10T19:51:40.419Z,8.20
2023-04-10T19:54:09.239Z,7.37
2023-04-10T19:56:38.246Z,8.20
2023-04-10T19:59:10.559Z,8.43
2023-04-10T20:01:40.770Z,9.00
2023-04-10T20:04:09.804Z,7.67
2023-04-10T20:06:38.680Z,8.43
2023-04-10T20:09:07.532Z,9.20
2023-04-10T20:11:41.517Z,9.90
2023-04-10T20:14:11.799Z,9.33
2023-04-10T20:16:41.213Z,8.10
2023-04-10T20:19:10.101Z,8.30
2023-04-10T20:21:38.969Z,8.47
2023-04-10T20:24:08.125Z,7.20
2023-04-10T20:26:37.050Z,7.70
2023-04-10T20:29:05.923Z,9.10
2023-04-10T20:31:36.175Z,7.53
2023-04-10T20:34:05.076Z,7.33
2023-04-10T20:36:35.773Z,8.77
2023-04-10T20:39:04.746Z,8.10
2023-04-10T20:41:33.608Z,7.60
2023-04-10T20:44:04.576Z,7.73
2023-04-10T20:46:33.404Z,7.20
2023-04-10T20:49:04.644Z,7.30
2023-04-10T20:51:33.781Z,7.20
2023-04-10T20:54:02.561Z,7.23
2023-04-10T20:56:43.785Z,7.00
2023-04-10T20:59:13.116Z,7.90
2023-04-10T21:01:42.068Z,8.30
2023-04-10T21:04:14.056Z,8.50
2023-04-10T21:06:43.374Z,6.73
2023-04-10T21:09:12.150Z,7.80
2023-04-10T21:11:41.847Z,6.83
2023-04-10T21:14:10.875Z,8.03
2023-04-10T21:16:42.519Z,6.50
2023-04-10T21:19:13.417Z,7.20
2023-04-10T21:21:42.308Z,7.03
2023-04-10T21:24:11.160Z,7.37
2023-04-10T21:26:40.051Z,7.50
2023-04-10T21:29:09.072Z,7.67
2023-04-10T21:31:39.166Z,7.67
2023-04-10T21:34:08.032Z,7.57
2023-04-10T21:36:39.356Z,7.07
2023-04-10T21:39:09.427Z,7.20
2023-04-10T21:41:38.695Z,7.57
2023-04-10T21:44:07.995Z,8.63
2023-04-10T21:46:36.956Z,7.40
2023-04-10T21:49:05.800Z,8.37
2023-04-10T21:51:34.900Z,7.10
2023-04-10T21:54:05.192Z,8.07
2023-04-10T21:56:35.615Z,7.90
2023-04-10T21:59:05.032Z,8.03
2023-04-10T22:01:34.722Z,6.90
2023-04-10T22:04:03.843Z,7.33
2023-04-10T22:06:33.082Z,7.40
2023-04-10T22:09:01.904Z,7.33
2023-04-10T22:11:33.390Z,7.47
2023-04-10T22:14:09.070Z,8.50
2023-04-10T22:16:45.355Z,8.07
2023-04-10T22:19:14.458Z,7.90
2023-04-10T22:21:43.396Z,7.13
2023-04-10T22:24:12.275Z,6.43
2023-04-10T22:26:45.970Z,8.13
2023-04-10T22:29:15.069Z,7.90
2023-04-10T22:31:44.273Z,7.27
2023-04-10T22:34:13.178Z,6.00
2023-04-10T22:36:44.122Z,8.20
2023-04-10T22:39:13.262Z,8.60
2023-04-10T22:41:44.045Z,7.83
2023-04-10T22:44:13.048Z,7.90
2023-04-10T22:46:42.113Z,7.43
2023-04-10T22:49:11.358Z,7.80
2023-04-10T22:51:40.453Z,8.30
2023-04-10T22:54:10.402Z,8.80
2023-04-10T22:56:39.567Z,7.17
2023-04-10T22:59:09.742Z,8.33
2023-04-10T23:01:38.732Z,8.70
2023-04-10T23:04:10.220Z,8.00
2023-04-10T23:06:39.894Z,8.17
2023-04-10T23:09:08.712Z,7.23
2023-04-10T23:11:37.775Z,7.70
2023-04-10T23:14:08.129Z,7.73
2023-04-10T23:16:37.009Z,9.73
2023-04-10T23:19:06.111Z,7.90
2023-04-10T23:21:34.932Z,8.20
2023-04-10T23:24:03.970Z,8.13
2023-04-10T23:26:32.921Z,7.10
2023-04-10T23:29:02.120Z,8.57
2023-04-10T23:31:32.365Z,7.80
2023-04-10T23:34:01.314Z,9.07
2023-04-10T23:36:30.251Z,7.97
2023-04-10T23:38:59.240Z,7.93
2023-04-10T23:41:28.059Z,6.97
2023-04-10T23:43:57.024Z,7.70
2023-04-10T23:46:25.922Z,7.80
2023-04-10T23:48:56.806Z,8.00
2023-04-10T23:51:27.065Z,6.60
2023-04-10T23:53:55.906Z,8.00
2023-04-10T23:56:29.101Z,7.27
2023-04-10T23:58:58.148Z,8.40
